sensor_id;sensor_type;location;lat;lon;timestamp;P1;P2;P0
14880;PMS7003;7533;51.278;12.588;2022-11-03T00:04:42;1.50;1.50;0.50
14880;PMS7003;7533;51.278;12.588;2022-11-03T00:09:45;1.50;1.00;0.00
14880;PMS7003;7533;51.278;12.588;2022-11-03T00:14:47;1.00;1.00;0.00
14880;PMS7003;7533;51.278;12.588;2022-11-03T00:19:52;3.50;1.75;0.75
14880;PMS7003;7533;51.278;12.588;2022-11-03T00:24:54;1.00;1.00;0.00
14880;PMS7003;7533;51.278;12.588;2022-11-03T00:29:57;1.25;1.25;0.00
14880;PMS7003;7533;51.278;12.588;2022-11-03T00:35:01;1.00;1.00;0.00
14880;PMS7003;7533;51.278;12.588;2022-11-03T00:40:04;0.75;0.75;0.00
14880;PMS7003;7533;51.278;12.588;2022-11-03T00:45:08;1.50;1.00;0.75
14880;PMS7003;7533;51.278;12.588;2022-11-03T00:50:12;2.50;1.75;0.00
14880;PMS7003;7533;51.278;12.588;2022-11-03T00:55:15;0.50;0.50;0.00
14880;PMS7003;7533;51.278;12.588;2022-11-03T01:00:18;2.00;2.00;1.00
14880;PMS7003;7533;51.278;12.588;2022-11-03T01:05:22;1.00;1.00;0.00
14880;PMS7003;7533;51.278;12.588;2022-11-03T01:10:42;2.00;2.00;0.00
14880;PMS7003;7533;51.278;12.588;2022-11-03T01:16:05;2.00;2.00;1.00
14880;PMS7003;7533;51.278;12.588;2022-11-03T01:21:10;0.50;0.50;0.00
14880;PMS7003;7533;51.278;12.588;2022-11-03T01:26:13;0.50;0.50;0.00
14880;PMS7003;7533;51.278;12.588;2022-11-03T01:31:16;1.00;1.00;0.00
14880;PMS7003;7533;51.278;12.588;2022-11-03T01:36:21;1.00;1.00;0.00
14880;PMS7003;7533;51.278;12.588;2022-11-03T01:41:25;0.00;0.00;0.00
14880;PMS7003;7533;51.278;12.588;2022-11-03T01:46:29;2.00;2.00;0.25
14880;PMS7003;7533;51.278;12.588;2022-11-03T01:51:33;0.00;0.00;0.00
14880;PMS7003;7533;51.278;12.588;2022-11-03T01:56:39;0.50;0.50;0.00
14880;PMS7003;7533;51.278;12.588;2022-11-03T02:01:46;1.00;1.00;0.00
14880;PMS7003;7533;51.278;12.588;2022-11-03T02:06:52;1.50;1.50;0.25
14880;PMS7003;7533;51.278;12.588;2022-11-03T02:12:04;1.50;1.50;1.00
14880;PMS7003;7533;51.278;12.588;2022-11-03T02:17:10;2.00;0.75;0.00
14880;PMS7003;7533;51.278;12.588;2022-11-03T02:22:26;1.00;0.75;0.00
14880;PMS7003;7533;51.278;12.588;2022-11-03T02:27:38;1.75;1.00;0.00
14880;PMS7003;7533;51.278;12.588;2022-11-03T02:32:45;1.00;1.00;0.00
14880;PMS7003;7533;51.278;12.588;2022-11-03T02:37:57;2.00;1.00;0.00
14880;PMS7003;7533;51.278;12.588;2022-11-03T02:43:04;1.00;0.00;0.00
14880;PMS7003;7533;51.278;12.588;2022-11-03T02:48:11;2.00;1.25;0.00
14880;PMS7003;7533;51.278;12.588;2022-11-03T02:53:17;1.50;1.00;0.00
14880;PMS7003;7533;51.278;12.588;2022-11-03T02:58:23;1.50;1.00;0.00
14880;PMS7003;7533;51.278;12.588;2022-11-03T03:03:33;0.00;0.00;0.00
14880;PMS7003;7533;51.278;12.588;2022-11-03T03:08:42;1.00;0.50;0.00
14880;PMS7003;7533;51.278;12.588;2022-11-03T03:13:49;1.00;1.00;0.00
14880;PMS7003;7533;51.278;12.588;2022-11-03T03:18:54;0.00;0.00;0.00
14880;PMS7003;7533;51.278;12.588;2022-11-03T03:24:11;0.75;0.75;0.00
14880;PMS7003;7533;51.278;12.588;2022-11-03T03:29:23;2.75;1.50;0.00
14880;PMS7003;7533;51.278;12.588;2022-11-03T03:34:29;1.00;1.00;0.00
14880;PMS7003;7533;51.278;12.588;2022-11-03T03:39:37;1.00;1.00;0.00
14880;PMS7003;7533;51.278;12.588;2022-11-03T03:44:43;1.00;1.00;0.00
14880;PMS7003;7533;51.278;12.588;2022-11-03T03:49:47;0.25;0.25;0.00
14880;PMS7003;7533;51.278;12.588;2022-11-03T03:54:50;1.00;1.00;0.00
14880;PMS7003;7533;51.278;12.588;2022-11-03T03:59:54;1.50;1.50;0.25
14880;PMS7003;7533;51.278;12.588;2022-11-03T04:04:57;1.25;1.25;0.00
14880;PMS7003;7533;51.278;12.588;2022-11-03T04:10:00;1.00;1.00;0.00
14880;PMS7003;7533;51.278;12.588;2022-11-03T04:15:05;1.00;1.00;0.00
14880;PMS7003;7533;51.278;12.588;2022-11-03T04:20:26;0.50;0.50;0.00
14880;PMS7003;7533;51.278;12.588;2022-11-03T04:25:47;1.00;1.00;0.00
14880;PMS7003;7533;51.278;12.588;2022-11-03T04:30:54;0.25;0.25;0.00
14880;PMS7003;7533;51.278;12.588;2022-11-03T04:35:59;0.50;0.50;0.00
14880;PMS7003;7533;51.278;12.588;2022-11-03T04:41:05;1.00;1.00;0.00
14880;PMS7003;7533;51.278;12.588;2022-11-03T04:46:16;1.00;1.00;0.00
14880;PMS7003;7533;51.278;12.588;2022-11-03T04:51:25;3.00;2.00;0.00
14880;PMS7003;7533;51.278;12.588;2022-11-03T04:56:31;1.00;1.00;0.00
14880;PMS7003;7533;51.278;12.588;2022-11-03T05:01:35;1.00;1.00;0.00
14880;PMS7003;7533;51.278;12.588;2022-11-03T05:06:38;1.00;1.00;0.00
14880;PMS7003;7533;51.278;12.588;2022-11-03T05:11:43;1.25;0.50;0.00
14880;PMS7003;7533;51.278;12.588;2022-11-03T05:16:50;1.00;0.25;0.00
14880;PMS7003;7533;51.278;12.588;2022-11-03T05:21:55;2.00;0.50;0.00
14880;PMS7003;7533;51.278;12.588;2022-11-03T05:27:01;1.00;1.00;0.00
14880;PMS7003;7533;51.278;12.588;2022-11-03T05:32:08;1.00;1.00;0.00
14880;PMS7003;7533;51.278;12.588;2022-11-03T05:37:24;1.00;1.00;0.00
14880;PMS7003;7533;51.278;12.588;2022-11-03T05:42:31;1.25;1.25;0.00
14880;PMS7003;7533;51.278;12.588;2022-11-03T05:47:37;0.50;0.50;0.00
14880;PMS7003;7533;51.278;12.588;2022-11-03T05:52:41;1.75;0.00;0.00
14880;PMS7003;7533;51.278;12.588;2022-11-03T05:57:45;1.75;1.25;0.75
14880;PMS7003;7533;51.278;12.588;2022-11-03T06:02:49;1.00;0.00;0.00
14880;PMS7003;7533;51.278;12.588;2022-11-03T06:07:53;0.50;0.25;0.00
14880;PMS7003;7533;51.278;12.588;2022-11-03T06:12:58;0.75;0.75;0.00
14880;PMS7003;7533;51.278;12.588;2022-11-03T06:18:11;0.50;0.50;0.00
14880;PMS7003;7533;51.278;12.588;2022-11-03T06:23:17;0.00;0.00;0.00
14880;PMS7003;7533;51.278;12.588;2022-11-03T06:28:21;2.00;2.00;0.50
14880;PMS7003;7533;51.278;12.588;2022-11-03T06:33:28;0.75;0.75;0.00
14880;PMS7003;7533;51.278;12.588;2022-11-03T06:38:36;1.25;0.50;0.00
14880;PMS7003;7533;51.278;12.588;2022-11-03T06:43:39;0.00;0.00;0.00
14880;PMS7003;7533;51.278;12.588;2022-11-03T06:48:44;0.50;0.50;0.00
14880;PMS7003;7533;51.278;12.588;2022-11-03T06:53:47;0.25;0.25;0.00
14880;PMS7003;7533;51.278;12.588;2022-11-03T06:58:53;1.00;1.00;0.00
14880;PMS7003;7533;51.278;12.588;2022-11-03T07:03:59;1.50;1.00;0.00
14880;PMS7003;7533;51.278;12.588;2022-11-03T07:09:05;0.75;0.75;0.00
14880;PMS7003;7533;51.278;12.588;2022-11-03T07:14:15;0.00;0.00;0.00
14880;PMS7003;7533;51.278;12.588;2022-11-03T07:19:23;1.25;1.25;0.50
14880;PMS7003;7533;51.278;12.588;2022-11-03T07:24:29;0.75;0.75;0.00
14880;PMS7003;7533;51.278;12.588;2022-11-03T07:29:34;1.00;0.00;0.00
14880;PMS7003;7533;51.278;12.588;2022-11-03T07:34:38;1.00;1.00;0.00
14880;PMS7003;7533;51.278;12.588;2022-11-03T07:39:41;1.00;1.00;0.00
14880;PMS7003;7533;51.278;12.588;2022-11-03T07:44:43;0.00;0.00;0.00
14880;PMS7003;7533;51.278;12.588;2022-11-03T07:49:48;2.00;1.00;0.00
14880;PMS7003;7533;51.278;12.588;2022-11-03T07:54:52;1.00;0.50;0.00
14880;PMS7003;7533;51.278;12.588;2022-11-03T07:59:57;0.50;0.50;0.00
14880;PMS7003;7533;51.278;12.588;2022-11-03T08:05:15;1.00;1.00;0.00
14880;PMS7003;7533;51.278;12.588;2022-11-03T08:10:17;0.00;0.00;0.00
14880;PMS7003;7533;51.278;12.588;2022-11-03T08:15:21;0.25;0.25;0.00
14880;PMS7003;7533;51.278;12.588;2022-11-03T08:20:25;2.00;1.00;0.00
14880;PMS7003;7533;51.278;12.588;2022-11-03T08:25:28;0.00;0.00;0.00
14880;PMS7003;7533;51.278;12.588;2022-11-03T08:30:30;2.25;1.00;0.25
14880;PMS7003;7533;51.278;12.588;2022-11-03T08:35:35;2.75;2.75;1.00
14880;PMS7003;7533;51.278;12.588;2022-11-03T08:40:38;3.25;1.00;0.25
14880;PMS7003;7533;51.278;12.588;2022-11-03T08:45:40;1.25;0.50;0.00
14880;PMS7003;7533;51.278;12.588;2022-11-03T08:50:44;2.75;2.00;0.50
14880;PMS7003;7533;51.278;12.588;2022-11-03T08:55:47;5.00;3.50;1.50
14880;PMS7003;7533;51.278;12.588;2022-11-03T09:00:50;2.75;2.25;1.00
14880;PMS7003;7533;51.278;12.588;2022-11-03T09:05:54;3.00;1.00;0.50
14880;PMS7003;7533;51.278;12.588;2022-11-03T09:10:57;2.00;1.75;0.75
14880;PMS7003;7533;51.278;12.588;2022-11-03T09:15:59;1.67;1.67;0.00
14880;PMS7003;7533;51.278;12.588;2022-11-03T09:21:04;2.50;2.00;0.00
14880;PMS7003;7533;51.278;12.588;2022-11-03T09:26:06;1.75;1.00;0.50
14880;PMS7003;7533;51.278;12.588;2022-11-03T09:31:09;2.00;2.00;1.00
14880;PMS7003;7533;51.278;12.588;2022-11-03T09:36:13;3.50;2.75;1.00
14880;PMS7003;7533;51.278;12.588;2022-11-03T09:41:16;1.75;1.00;0.75
14880;PMS7003;7533;51.278;12.588;2022-11-03T09:46:35;2.00;2.00;0.25
14880;PMS7003;7533;51.278;12.588;2022-11-03T09:51:39;1.00;1.00;0.00
14880;PMS7003;7533;51.278;12.588;2022-11-03T09:56:43;2.75;2.75;1.00
14880;PMS7003;7533;51.278;12.588;2022-11-03T10:01:48;0.25;0.25;0.00
14880;PMS7003;7533;51.278;12.588;2022-11-03T10:06:55;0.75;0.75;0.00
14880;PMS7003;7533;51.278;12.588;2022-11-03T10:11:59;0.50;0.50;0.00
14880;PMS7003;7533;51.278;12.588;2022-11-03T10:17:02;1.25;1.25;0.00
14880;PMS7003;7533;51.278;12.588;2022-11-03T10:22:06;1.75;1.50;0.00
14880;PMS7003;7533;51.278;12.588;2022-11-03T10:27:19;0.00;0.00;0.00
14880;PMS7003;7533;51.278;12.588;2022-11-03T10:32:29;2.00;0.75;0.00
14880;PMS7003;7533;51.278;12.588;2022-11-03T10:37:36;1.50;1.00;0.00
14880;PMS7003;7533;51.278;12.588;2022-11-03T10:42:40;1.00;1.00;0.25
14880;PMS7003;7533;51.278;12.588;2022-11-03T10:47:59;3.25;1.00;0.75
14880;PMS7003;7533;51.278;12.588;2022-11-03T10:53:04;2.25;1.75;0.25
14880;PMS7003;7533;51.278;12.588;2022-11-03T10:58:15;1.25;1.25;0.00
14880;PMS7003;7533;51.278;12.588;2022-11-03T11:03:18;1.00;1.00;0.00
14880;PMS7003;7533;51.278;12.588;2022-11-03T11:08:22;2.00;1.50;0.00
14880;PMS7003;7533;51.278;12.588;2022-11-03T11:13:26;3.00;2.00;1.00
14880;PMS7003;7533;51.278;12.588;2022-11-03T11:24:12;2.75;2.75;1.00
14880;PMS7003;7533;51.278;12.588;2022-11-03T11:34:42;2.50;2.50;1.25
14880;PMS7003;7533;51.278;12.588;2022-11-03T11:39:46;3.50;3.50;2.00
14880;PMS7003;7533;51.278;12.588;2022-11-03T11:44:52;3.00;3.00;1.00
14880;PMS7003;7533;51.278;12.588;2022-11-03T11:55:36;2.50;2.50;1.50
14880;PMS7003;7533;51.278;12.588;2022-11-03T12:00:49;2.75;2.00;1.00
14880;PMS7003;7533;51.278;12.588;2022-11-03T12:05:54;3.00;2.75;1.00
14880;PMS7003;7533;51.278;12.588;2022-11-03T12:10:59;1.75;1.75;1.00
14880;PMS7003;7533;51.278;12.588;2022-11-03T12:16:03;2.50;2.50;1.00
14880;PMS7003;7533;51.278;12.588;2022-11-03T12:21:07;2.00;1.75;1.00
14880;PMS7003;7533;51.278;12.588;2022-11-03T12:26:14;2.00;2.00;1.00
14880;PMS7003;7533;51.278;12.588;2022-11-03T12:31:18;2.00;2.00;1.00
14880;PMS7003;7533;51.278;12.588;2022-11-03T12:36:22;2.50;2.50;1.00
14880;PMS7003;7533;51.278;12.588;2022-11-03T12:41:26;2.00;2.00;1.00
14880;PMS7003;7533;51.278;12.588;2022-11-03T12:46:28;1.50;1.00;1.00
14880;PMS7003;7533;51.278;12.588;2022-11-03T12:51:31;2.00;1.00;0.00
14880;PMS7003;7533;51.278;12.588;2022-11-03T12:56:35;2.50;2.50;1.00
14880;PMS7003;7533;51.278;12.588;2022-11-03T13:01:38;3.00;2.00;0.75
14880;PMS7003;7533;51.278;12.588;2022-11-03T13:06:41;3.75;2.75;1.50
14880;PMS7003;7533;51.278;12.588;2022-11-03T13:11:45;2.25;2.25;0.50
14880;PMS7003;7533;51.278;12.588;2022-11-03T13:17:05;2.75;2.25;1.00
14880;PMS7003;7533;51.278;12.588;2022-11-03T13:22:08;1.75;1.00;0.00
14880;PMS7003;7533;51.278;12.588;2022-11-03T13:27:12;3.75;3.00;1.00
14880;PMS7003;7533;51.278;12.588;2022-11-03T13:32:15;4.00;1.00;1.00
14880;PMS7003;7533;51.278;12.588;2022-11-03T13:37:18;3.00;2.00;0.00
14880;PMS7003;7533;51.278;12.588;2022-11-03T13:42:22;4.75;3.75;1.00
14880;PMS7003;7533;51.278;12.588;2022-11-03T13:47:25;2.50;2.00;1.00
14880;PMS7003;7533;51.278;12.588;2022-11-03T13:52:48;5.25;4.00;1.00
14880;PMS7003;7533;51.278;12.588;2022-11-03T13:57:52;4.50;4.50;2.00
14880;PMS7003;7533;51.278;12.588;2022-11-03T14:03:15;4.25;3.50;1.25
14880;PMS7003;7533;51.278;12.588;2022-11-03T14:08:37;2.00;2.00;1.00
14880;PMS7003;7533;51.278;12.588;2022-11-03T14:13:41;2.00;2.00;1.25
14880;PMS7003;7533;51.278;12.588;2022-11-03T14:18:44;5.50;4.50;2.00
14880;PMS7003;7533;51.278;12.588;2022-11-03T14:28:52;2.75;2.00;1.00
14880;PMS7003;7533;51.278;12.588;2022-11-03T14:33:55;4.00;3.50;1.00
14880;PMS7003;7533;51.278;12.588;2022-11-03T14:38:57;4.75;3.75;1.25
14880;PMS7003;7533;51.278;12.588;2022-11-03T14:44:02;3.00;2.00;1.50
14880;PMS7003;7533;51.278;12.588;2022-11-03T14:49:04;3.25;2.75;1.00
14880;PMS7003;7533;51.278;12.588;2022-11-03T14:54:08;4.75;4.00;1.25
14880;PMS7003;7533;51.278;12.588;2022-11-03T14:59:12;3.00;1.75;0.00
14880;PMS7003;7533;51.278;12.588;2022-11-03T15:04:15;2.75;2.50;0.50
14880;PMS7003;7533;51.278;12.588;2022-11-03T15:09:18;3.75;2.50;1.00
14880;PMS7003;7533;51.278;12.588;2022-11-03T15:14:22;3.00;1.75;0.25
14880;PMS7003;7533;51.278;12.588;2022-11-03T15:19:24;2.50;2.50;0.75
14880;PMS7003;7533;51.278;12.588;2022-11-03T15:24:27;3.50;3.50;1.75
14880;PMS7003;7533;51.278;12.588;2022-11-03T15:29:51;5.25;3.00;1.00
14880;PMS7003;7533;51.278;12.588;2022-11-03T15:34:54;4.50;3.25;1.00
14880;PMS7003;7533;51.278;12.588;2022-11-03T15:39:56;2.25;1.50;0.50
14880;PMS7003;7533;51.278;12.588;2022-11-03T15:45:01;2.50;2.50;1.75
14880;PMS7003;7533;51.278;12.588;2022-11-03T15:50:05;4.00;3.00;0.75
14880;PMS7003;7533;51.278;12.588;2022-11-03T15:55:09;5.75;3.00;1.00
14880;PMS7003;7533;51.278;12.588;2022-11-03T16:00:13;3.00;2.00;1.00
14880;PMS7003;7533;51.278;12.588;2022-11-03T16:05:16;1.75;1.75;0.75
14880;PMS7003;7533;51.278;12.588;2022-11-03T16:10:25;1.75;1.50;0.00
14880;PMS7003;7533;51.278;12.588;2022-11-03T16:15:29;1.00;1.00;1.00
14880;PMS7003;7533;51.278;12.588;2022-11-03T16:20:32;2.00;2.00;0.50
14880;PMS7003;7533;51.278;12.588;2022-11-03T16:25:35;3.00;2.75;1.00
14880;PMS7003;7533;51.278;12.588;2022-11-03T16:30:39;2.75;2.75;1.00
14880;PMS7003;7533;51.278;12.588;2022-11-03T16:35:42;5.00;3.00;1.50
14880;PMS7003;7533;51.278;12.588;2022-11-03T16:40:44;1.00;1.00;0.50
14880;PMS7003;7533;51.278;12.588;2022-11-03T16:45:48;2.50;2.50;1.00
14880;PMS7003;7533;51.278;12.588;2022-11-03T16:50:51;3.50;3.50;1.50
14880;PMS7003;7533;51.278;12.588;2022-11-03T16:55:57;14.75;14.50;10.00
14880;PMS7003;7533;51.278;12.588;2022-11-03T17:01:01;20.00;18.00;13.00
14880;PMS7003;7533;51.278;12.588;2022-11-03T17:06:05;15.75;14.25;10.00
14880;PMS7003;7533;51.278;12.588;2022-11-03T17:11:07;14.50;13.50;8.75
14880;PMS7003;7533;51.278;12.588;2022-11-03T17:16:11;14.00;13.25;8.75
14880;PMS7003;7533;51.278;12.588;2022-11-03T17:21:14;12.50;12.00;8.00
14880;PMS7003;7533;51.278;12.588;2022-11-03T17:26:17;11.00;10.75;8.75
14880;PMS7003;7533;51.278;12.588;2022-11-03T17:31:24;10.25;10.00;6.75
14880;PMS7003;7533;51.278;12.588;2022-11-03T17:36:27;10.00;9.00;7.00
14880;PMS7003;7533;51.278;12.588;2022-11-03T17:41:30;10.25;9.00;6.75
14880;PMS7003;7533;51.278;12.588;2022-11-03T17:46:34;12.00;10.50;7.25
14880;PMS7003;7533;51.278;12.588;2022-11-03T17:51:39;12.25;11.50;7.25
14880;PMS7003;7533;51.278;12.588;2022-11-03T17:56:43;11.50;10.00;6.50
14880;PMS7003;7533;51.278;12.588;2022-11-03T18:01:47;11.75;10.00;7.50
14880;PMS7003;7533;51.278;12.588;2022-11-03T18:06:51;10.50;10.50;6.50
14880;PMS7003;7533;51.278;12.588;2022-11-03T18:11:54;12.50;9.50;6.00
14880;PMS7003;7533;51.278;12.588;2022-11-03T18:17:16;10.50;9.25;6.25
14880;PMS7003;7533;51.278;12.588;2022-11-03T18:22:19;7.75;7.00;6.00
14880;PMS7003;7533;51.278;12.588;2022-11-03T18:27:22;8.75;8.00;5.75
14880;PMS7003;7533;51.278;12.588;2022-11-03T18:32:27;10.25;10.25;7.00
14880;PMS7003;7533;51.278;12.588;2022-11-03T18:37:36;8.50;7.00;5.25
14880;PMS7003;7533;51.278;12.588;2022-11-03T18:42:39;9.75;9.00;6.25
14880;PMS7003;7533;51.278;12.588;2022-11-03T18:47:44;9.50;9.50;6.25
14880;PMS7003;7533;51.278;12.588;2022-11-03T18:52:47;10.75;9.25;6.50
14880;PMS7003;7533;51.278;12.588;2022-11-03T18:57:52;8.00;8.00;5.50
14880;PMS7003;7533;51.278;12.588;2022-11-03T19:02:56;9.25;9.25;6.00
14880;PMS7003;7533;51.278;12.588;2022-11-03T19:07:59;7.50;6.75;5.00
14880;PMS7003;7533;51.278;12.588;2022-11-03T19:13:03;9.75;8.50;4.75
14880;PMS7003;7533;51.278;12.588;2022-11-03T19:18:08;10.50;8.00;5.00
14880;PMS7003;7533;51.278;12.588;2022-11-03T19:23:14;7.75;7.75;5.75
14880;PMS7003;7533;51.278;12.588;2022-11-03T19:28:18;7.25;7.25;5.00
14880;PMS7003;7533;51.278;12.588;2022-11-03T19:33:24;8.25;6.75;4.50
14880;PMS7003;7533;51.278;12.588;2022-11-03T19:38:31;9.00;7.00;4.50
14880;PMS7003;7533;51.278;12.588;2022-11-03T19:43:34;8.00;7.50;5.00
14880;PMS7003;7533;51.278;12.588;2022-11-03T19:48:38;5.50;5.50;4.00
14880;PMS7003;7533;51.278;12.588;2022-11-03T20:04:50;7.75;7.25;4.50
14880;PMS7003;7533;51.278;12.588;2022-11-03T20:09:52;8.25;7.25;5.75
14880;PMS7003;7533;51.278;12.588;2022-11-03T20:14:55;9.00;7.25;5.50
14880;PMS7003;7533;51.278;12.588;2022-11-03T20:19:59;8.75;8.25;5.00
14880;PMS7003;7533;51.278;12.588;2022-11-03T20:25:02;9.25;8.75;5.25
14880;PMS7003;7533;51.278;12.588;2022-11-03T20:30:08;9.75;9.75;6.00
14880;PMS7003;7533;51.278;12.588;2022-11-03T20:35:16;9.75;9.00;5.00
14880;PMS7003;7533;51.278;12.588;2022-11-03T20:40:25;10.00;6.50;4.75
14880;PMS7003;7533;51.278;12.588;2022-11-03T20:45:31;8.50;7.75;6.00
14880;PMS7003;7533;51.278;12.588;2022-11-03T20:50:35;8.25;7.25;4.25
14880;PMS7003;7533;51.278;12.588;2022-11-03T20:55:38;10.50;9.25;5.50
14880;PMS7003;7533;51.278;12.588;2022-11-03T21:00:41;10.00;8.50;5.50
14880;PMS7003;7533;51.278;12.588;2022-11-03T21:05:47;8.75;7.00;5.00
14880;PMS7003;7533;51.278;12.588;2022-11-03T21:10:49;11.00;8.75;6.00
14880;PMS7003;7533;51.278;12.588;2022-11-03T21:15:52;10.00;9.00;6.00
14880;PMS7003;7533;51.278;12.588;2022-11-03T21:21:26;8.50;8.50;6.00
14880;PMS7003;7533;51.278;12.588;2022-11-03T21:26:28;8.75;7.25;5.50
14880;PMS7003;7533;51.278;12.588;2022-11-03T21:31:31;9.25;9.00;7.00
14880;PMS7003;7533;51.278;12.588;2022-11-03T21:36:36;8.00;8.00;5.00
14880;PMS7003;7533;51.278;12.588;2022-11-03T21:41:38;10.00;8.75;5.00
14880;PMS7003;7533;51.278;12.588;2022-11-03T21:46:59;9.00;8.50;5.25
14880;PMS7003;7533;51.278;12.588;2022-11-03T21:52:03;10.25;10.25;5.00
14880;PMS7003;7533;51.278;12.588;2022-11-03T21:57:06;13.00;10.00;6.75
14880;PMS7003;7533;51.278;12.588;2022-11-03T22:02:10;10.75;9.50;5.50
14880;PMS7003;7533;51.278;12.588;2022-11-03T22:07:14;9.75;9.25;6.25
14880;PMS7003;7533;51.278;12.588;2022-11-03T22:12:17;8.50;8.50;5.00
14880;PMS7003;7533;51.278;12.588;2022-11-03T22:17:20;9.00;8.00;5.75
14880;PMS7003;7533;51.278;12.588;2022-11-03T22:22:24;8.50;8.50;6.00
14880;PMS7003;7533;51.278;12.588;2022-11-03T22:27:44;9.00;8.00;5.00
14880;PMS7003;7533;51.278;12.588;2022-11-03T22:32:48;6.50;6.50;4.75
14880;PMS7003;7533;51.278;12.588;2022-11-03T22:38:03;10.00;10.00;6.00
14880;PMS7003;7533;51.278;12.588;2022-11-03T22:43:07;10.50;9.75;6.75
14880;PMS7003;7533;51.278;12.588;2022-11-03T22:48:36;8.75;7.00;5.50
14880;PMS7003;7533;51.278;12.588;2022-11-03T22:53:41;10.00;9.00;6.00
14880;PMS7003;7533;51.278;12.588;2022-11-03T22:59:01;10.50;9.25;6.50
14880;PMS7003;7533;51.278;12.588;2022-11-03T23:04:04;9.50;9.00;6.00
14880;PMS7003;7533;51.278;12.588;2022-11-03T23:09:09;10.75;9.00;6.00
14880;PMS7003;7533;51.278;12.588;2022-11-03T23:14:12;9.75;8.50;5.00
14880;PMS7003;7533;51.278;12.588;2022-11-03T23:19:15;9.00;8.75;6.00
14880;PMS7003;7533;51.278;12.588;2022-11-03T23:24:36;9.50;8.25;5.00
14880;PMS7003;7533;51.278;12.588;2022-11-03T23:29:56;8.75;8.75;6.50
14880;PMS7003;7533;51.278;12.588;2022-11-03T23:34:59;8.75;8.00;5.00
14880;PMS7003;7533;51.278;12.588;2022-11-03T23:40:05;7.50;7.50;5.00
14880;PMS7003;7533;51.278;12.588;2022-11-03T23:45:08;9.00;6.50;5.00
14880;PMS7003;7533;51.278;12.588;2022-11-03T23:50:29;8.25;8.25;4.75
14880;PMS7003;7533;51.278;12.588;2022-11-03T23:55:33;8.25;7.75;4.75
